sensor_id;sensor_type;location;lat;lon;timestamp;pressure;altitude;pressure_sealevel;temperature;humidity
53526;BME280;40551;50.478;19.378;2023-05-16T00:00:20;97320.91;;;10.12;82.37
53526;BME280;40551;50.478;19.378;2023-05-16T00:03:13;97319.37;;;10.08;82.32
53526;BME280;40551;50.478;19.378;2023-05-16T00:05:45;97324.77;;;10.06;82.45
53526;BME280;40551;50.478;19.378;2023-05-16T00:08:17;97326.80;;;10.04;82.61
53526;BME280;40551;50.478;19.378;2023-05-16T00:10:49;97323.66;;;10.03;82.73
53526;BME280;40551;50.478;19.378;2023-05-16T00:13:19;97323.70;;;10.00;82.49
53526;BME280;40551;50.478;19.378;2023-05-16T00:15:54;97333.92;;;9.93;82.81
53526;BME280;40551;50.478;19.378;2023-05-16T00:18:26;97336.46;;;9.93;82.79
53526;BME280;40551;50.478;19.378;2023-05-16T00:20:58;97337.42;;;9.92;82.87
53526;BME280;40551;50.478;19.378;2023-05-16T00:23:31;97331.42;;;9.92;82.94
53526;BME280;40551;50.478;19.378;2023-05-16T00:26:03;97335.00;;;9.89;82.99
53526;BME280;40551;50.478;19.378;2023-05-16T00:28:33;97340.54;;;9.87;82.90
53526;BME280;40551;50.478;19.378;2023-05-16T00:31:05;97340.97;;;9.80;83.07
53526;BME280;40551;50.478;19.378;2023-05-16T00:33:36;97346.23;;;9.78;82.99
53526;BME280;40551;50.478;19.378;2023-05-16T00:36:08;97349.88;;;9.76;83.04
53526;BME280;40551;50.478;19.378;2023-05-16T00:38:41;97350.07;;;9.74;83.08
53526;BME280;40551;50.478;19.378;2023-05-16T00:41:11;97348.98;;;9.72;83.01
53526;BME280;40551;50.478;19.378;2023-05-16T00:43:44;97351.48;;;9.66;83.18
53526;BME280;40551;50.478;19.378;2023-05-16T00:46:14;97354.52;;;9.63;82.92
53526;BME280;40551;50.478;19.378;2023-05-16T00:48:45;97352.02;;;9.56;83.03
53526;BME280;40551;50.478;19.378;2023-05-16T00:51:18;97353.19;;;9.55;82.96
53526;BME280;40551;50.478;19.378;2023-05-16T00:53:50;97356.61;;;9.53;82.95
53526;BME280;40551;50.478;19.378;2023-05-16T00:56:22;97352.44;;;9.52;83.01
53526;BME280;40551;50.478;19.378;2023-05-16T00:58:53;97350.37;;;9.48;82.94
53526;BME280;40551;50.478;19.378;2023-05-16T01:01:26;97348.18;;;9.45;82.75
53526;BME280;40551;50.478;19.378;2023-05-16T01:03:59;97346.77;;;9.42;82.74
53526;BME280;40551;50.478;19.378;2023-05-16T01:06:31;97344.94;;;9.39;82.81
53526;BME280;40551;50.478;19.378;2023-05-16T01:09:04;97348.55;;;9.38;82.87
53526;BME280;40551;50.478;19.378;2023-05-16T01:11:37;97347.27;;;9.35;82.62
53526;BME280;40551;50.478;19.378;2023-05-16T01:14:18;97346.55;;;9.31;82.64
53526;BME280;40551;50.478;19.378;2023-05-16T01:16:58;97342.31;;;9.28;82.68
53526;BME280;40551;50.478;19.378;2023-05-16T01:19:43;97342.63;;;9.25;82.83
53526;BME280;40551;50.478;19.378;2023-05-16T01:22:29;97341.27;;;9.21;82.97
53526;BME280;40551;50.478;19.378;2023-05-16T01:25:09;97344.45;;;9.18;82.92
53526;BME280;40551;50.478;19.378;2023-05-16T01:27:43;97343.92;;;9.16;82.79
53526;BME280;40551;50.478;19.378;2023-05-16T01:30:18;97346.61;;;9.13;82.66
53526;BME280;40551;50.478;19.378;2023-05-16T01:32:49;97349.95;;;9.08;82.76
53526;BME280;40551;50.478;19.378;2023-05-16T01:35:21;97350.71;;;9.06;82.67
53526;BME280;40551;50.478;19.378;2023-05-16T01:38:04;97347.52;;;9.03;82.70
53526;BME280;40551;50.478;19.378;2023-05-16T01:40:47;97343.41;;;9.01;82.66
53526;BME280;40551;50.478;19.378;2023-05-16T01:43:32;97343.73;;;8.99;82.48
53526;BME280;40551;50.478;19.378;2023-05-16T01:46:09;97340.80;;;8.97;82.51
53526;BME280;40551;50.478;19.378;2023-05-16T01:48:47;97341.41;;;8.94;82.45
53526;BME280;40551;50.478;19.378;2023-05-16T01:51:23;97340.09;;;8.91;82.56
53526;BME280;40551;50.478;19.378;2023-05-16T01:53:57;97346.23;;;8.88;82.30
53526;BME280;40551;50.478;19.378;2023-05-16T01:56:31;97349.27;;;8.85;82.18
53526;BME280;40551;50.478;19.378;2023-05-16T01:59:04;97349.29;;;8.81;82.21
53526;BME280;40551;50.478;19.378;2023-05-16T02:01:36;97354.91;;;8.76;82.03
53526;BME280;40551;50.478;19.378;2023-05-16T02:04:08;97352.46;;;8.71;82.22
53526;BME280;40551;50.478;19.378;2023-05-16T02:06:40;97352.59;;;8.63;82.05
53526;BME280;40551;50.478;19.378;2023-05-16T02:09:11;97354.23;;;8.57;82.01
53526;BME280;40551;50.478;19.378;2023-05-16T02:11:42;97353.77;;;8.52;82.22
53526;BME280;40551;50.478;19.378;2023-05-16T02:14:13;97347.59;;;8.42;82.39
53526;BME280;40551;50.478;19.378;2023-05-16T02:16:43;97350.45;;;8.38;82.41
53526;BME280;40551;50.478;19.378;2023-05-16T02:19:15;97351.11;;;8.31;82.49
53526;BME280;40551;50.478;19.378;2023-05-16T02:21:47;97355.56;;;8.27;82.38
53526;BME280;40551;50.478;19.378;2023-05-16T02:24:17;97355.30;;;8.22;82.34
53526;BME280;40551;50.478;19.378;2023-05-16T02:26:48;97359.21;;;8.15;82.52
53526;BME280;40551;50.478;19.378;2023-05-16T02:29:19;97359.98;;;8.16;82.60
53526;BME280;40551;50.478;19.378;2023-05-16T02:31:50;97359.61;;;8.12;82.90
53526;BME280;40551;50.478;19.378;2023-05-16T02:34:20;97363.61;;;8.14;82.81
53526;BME280;40551;50.478;19.378;2023-05-16T02:36:52;97360.61;;;8.09;82.93
53526;BME280;40551;50.478;19.378;2023-05-16T02:39:24;97363.71;;;8.11;82.86
53526;BME280;40551;50.478;19.378;2023-05-16T02:41:56;97365.95;;;8.11;82.88
53526;BME280;40551;50.478;19.378;2023-05-16T02:44:26;97365.11;;;8.11;82.79
53526;BME280;40551;50.478;19.378;2023-05-16T02:46:58;97369.10;;;8.02;82.88
53526;BME280;40551;50.478;19.378;2023-05-16T02:49:28;97370.98;;;7.98;82.53
53526;BME280;40551;50.478;19.378;2023-05-16T02:51:59;97374.31;;;7.90;82.64
53526;BME280;40551;50.478;19.378;2023-05-16T02:54:30;97380.45;;;7.87;82.69
53526;BME280;40551;50.478;19.378;2023-05-16T02:57:01;97379.26;;;7.80;83.00
53526;BME280;40551;50.478;19.378;2023-05-16T02:59:33;97373.67;;;7.81;83.08
53526;BME280;40551;50.478;19.378;2023-05-16T03:02:05;97372.75;;;7.82;83.18
53526;BME280;40551;50.478;19.378;2023-05-16T03:04:37;97371.16;;;7.82;83.01
53526;BME280;40551;50.478;19.378;2023-05-16T03:07:07;97374.90;;;7.83;83.22
53526;BME280;40551;50.478;19.378;2023-05-16T03:09:39;97374.67;;;7.79;83.42
53526;BME280;40551;50.478;19.378;2023-05-16T03:12:11;97371.15;;;7.82;83.32
53526;BME280;40551;50.478;19.378;2023-05-16T03:14:42;97375.56;;;7.85;83.27
53526;BME280;40551;50.478;19.378;2023-05-16T03:17:14;97377.80;;;7.85;83.17
53526;BME280;40551;50.478;19.378;2023-05-16T03:19:46;97380.61;;;7.85;82.99
53526;BME280;40551;50.478;19.378;2023-05-16T03:22:16;97380.02;;;7.86;83.23
53526;BME280;40551;50.478;19.378;2023-05-16T03:24:47;97383.05;;;7.83;83.41
53526;BME280;40551;50.478;19.378;2023-05-16T03:27:19;97388.10;;;7.90;83.50
53526;BME280;40551;50.478;19.378;2023-05-16T03:29:52;97383.79;;;8.18;84.60
53526;BME280;40551;50.478;19.378;2023-05-16T03:32:24;97377.94;;;8.60;85.33
53526;BME280;40551;50.478;19.378;2023-05-16T03:34:55;97379.19;;;9.05;85.61
53526;BME280;40551;50.478;19.378;2023-05-16T03:37:27;97383.82;;;9.50;85.47
53526;BME280;40551;50.478;19.378;2023-05-16T03:39:58;97388.52;;;9.98;85.08
53526;BME280;40551;50.478;19.378;2023-05-16T03:42:30;97387.33;;;10.31;83.89
53526;BME280;40551;50.478;19.378;2023-05-16T03:45:03;97390.43;;;10.63;83.18
53526;BME280;40551;50.478;19.378;2023-05-16T03:47:35;97389.84;;;11.07;83.14
53526;BME280;40551;50.478;19.378;2023-05-16T03:50:07;97392.71;;;11.62;82.84
53526;BME280;40551;50.478;19.378;2023-05-16T03:52:37;97395.30;;;12.07;82.03
53526;BME280;40551;50.478;19.378;2023-05-16T03:55:10;97395.92;;;12.57;81.46
53526;BME280;40551;50.478;19.378;2023-05-16T03:57:44;97397.00;;;13.04;80.15
53526;BME280;40551;50.478;19.378;2023-05-16T04:00:16;97396.34;;;13.48;78.96
53526;BME280;40551;50.478;19.378;2023-05-16T04:02:48;97395.21;;;13.99;78.15
53526;BME280;40551;50.478;19.378;2023-05-16T04:05:20;97390.35;;;14.49;77.17
53526;BME280;40551;50.478;19.378;2023-05-16T04:07:51;97391.23;;;14.91;76.17
53526;BME280;40551;50.478;19.378;2023-05-16T04:10:23;97395.84;;;15.46;75.30
53526;BME280;40551;50.478;19.378;2023-05-16T04:12:55;97398.96;;;16.05;74.45
53526;BME280;40551;50.478;19.378;2023-05-16T04:15:26;97395.58;;;16.62;73.25
53526;BME280;40551;50.478;19.378;2023-05-16T04:17:58;97389.88;;;17.21;72.26
53526;BME280;40551;50.478;19.378;2023-05-16T04:20:30;97391.92;;;17.80;70.86
53526;BME280;40551;50.478;19.378;2023-05-16T04:23:02;97392.70;;;18.38;69.55
53526;BME280;40551;50.478;19.378;2023-05-16T04:25:34;97390.66;;;18.99;68.77
53526;BME280;40551;50.478;19.378;2023-05-16T04:28:06;97396.23;;;19.50;67.12
53526;BME280;40551;50.478;19.378;2023-05-16T04:30:37;97405.36;;;19.95;65.41
53526;BME280;40551;50.478;19.378;2023-05-16T04:33:09;97403.86;;;20.43;64.26
53526;BME280;40551;50.478;19.378;2023-05-16T04:35:41;97399.61;;;20.81;62.37
53526;BME280;40551;50.478;19.378;2023-05-16T04:38:13;97395.73;;;21.13;60.80
53526;BME280;40551;50.478;19.378;2023-05-16T04:40:44;97394.78;;;21.45;60.23
53526;BME280;40551;50.478;19.378;2023-05-16T04:43:16;97398.48;;;21.90;59.74
53526;BME280;40551;50.478;19.378;2023-05-16T04:45:48;97404.16;;;22.33;58.90
53526;BME280;40551;50.478;19.378;2023-05-16T04:48:23;97406.31;;;22.82;57.84
53526;BME280;40551;50.478;19.378;2023-05-16T04:50:54;97407.45;;;23.17;56.14
53526;BME280;40551;50.478;19.378;2023-05-16T04:53:26;97415.21;;;23.46;54.91
53526;BME280;40551;50.478;19.378;2023-05-16T04:55:58;97418.40;;;23.70;54.02
53526;BME280;40551;50.478;19.378;2023-05-16T04:58:30;97417.25;;;24.03;53.44
53526;BME280;40551;50.478;19.378;2023-05-16T05:01:01;97422.96;;;24.41;52.51
53526;BME280;40551;50.478;19.378;2023-05-16T05:03:33;97425.82;;;24.79;51.47
53526;BME280;40551;50.478;19.378;2023-05-16T05:06:06;97431.43;;;25.00;50.14
53526;BME280;40551;50.478;19.378;2023-05-16T05:08:38;97435.39;;;25.15;48.96
53526;BME280;40551;50.478;19.378;2023-05-16T05:11:10;97434.41;;;25.43;49.17
53526;BME280;40551;50.478;19.378;2023-05-16T05:13:42;97442.25;;;25.63;47.67
53526;BME280;40551;50.478;19.378;2023-05-16T05:16:13;97441.91;;;25.76;46.62
53526;BME280;40551;50.478;19.378;2023-05-16T05:18:45;97447.10;;;25.81;46.37
53526;BME280;40551;50.478;19.378;2023-05-16T05:21:17;97446.86;;;26.05;45.91
53526;BME280;40551;50.478;19.378;2023-05-16T05:23:49;97453.38;;;26.24;45.85
53526;BME280;40551;50.478;19.378;2023-05-16T05:26:21;97455.84;;;26.64;45.57
53526;BME280;40551;50.478;19.378;2023-05-16T05:28:55;97458.96;;;26.98;44.62
53526;BME280;40551;50.478;19.378;2023-05-16T05:31:35;97461.68;;;27.31;44.43
53526;BME280;40551;50.478;19.378;2023-05-16T05:34:07;97456.20;;;27.69;43.60
53526;BME280;40551;50.478;19.378;2023-05-16T05:36:38;97459.60;;;28.04;42.77
53526;BME280;40551;50.478;19.378;2023-05-16T05:39:10;97459.46;;;28.27;41.60
53526;BME280;40551;50.478;19.378;2023-05-16T05:41:42;97463.89;;;28.37;41.38
53526;BME280;40551;50.478;19.378;2023-05-16T05:44:14;97470.13;;;28.55;40.95
53526;BME280;40551;50.478;19.378;2023-05-16T05:46:45;97470.13;;;28.81;40.51
53526;BME280;40551;50.478;19.378;2023-05-16T05:49:17;97467.23;;;29.04;40.12
53526;BME280;40551;50.478;19.378;2023-05-16T05:51:49;97462.95;;;29.29;39.16
53526;BME280;40551;50.478;19.378;2023-05-16T05:54:21;97464.91;;;29.24;38.52
53526;BME280;40551;50.478;19.378;2023-05-16T05:56:54;97468.37;;;29.35;38.37
53526;BME280;40551;50.478;19.378;2023-05-16T05:59:25;97469.61;;;29.41;37.76
53526;BME280;40551;50.478;19.378;2023-05-16T06:01:57;97474.45;;;29.48;37.58
53526;BME280;40551;50.478;19.378;2023-05-16T06:04:29;97477.83;;;29.47;36.96
53526;BME280;40551;50.478;19.378;2023-05-16T06:07:01;97480.13;;;29.52;36.90
53526;BME280;40551;50.478;19.378;2023-05-16T06:09:33;97480.50;;;29.86;37.12
53526;BME280;40551;50.478;19.378;2023-05-16T06:12:09;97474.27;;;30.21;36.34
53526;BME280;40551;50.478;19.378;2023-05-16T06:14:41;97477.56;;;30.26;35.25
53526;BME280;40551;50.478;19.378;2023-05-16T06:17:12;97475.27;;;30.20;35.19
53526;BME280;40551;50.478;19.378;2023-05-16T06:19:44;97469.61;;;30.37;35.20
53526;BME280;40551;50.478;19.378;2023-05-16T06:22:16;97466.70;;;30.37;34.15
53526;BME280;40551;50.478;19.378;2023-05-16T06:24:47;97472.69;;;30.10;33.91
53526;BME280;40551;50.478;19.378;2023-05-16T06:27:19;97477.05;;;30.07;34.47
53526;BME280;40551;50.478;19.378;2023-05-16T06:29:50;97480.32;;;30.21;34.69
53526;BME280;40551;50.478;19.378;2023-05-16T06:32:22;97478.54;;;30.31;34.10
53526;BME280;40551;50.478;19.378;2023-05-16T06:34:54;97488.89;;;30.22;33.47
53526;BME280;40551;50.478;19.378;2023-05-16T06:37:26;97488.58;;;30.11;33.62
53526;BME280;40551;50.478;19.378;2023-05-16T06:39:58;97485.30;;;30.06;33.45
53526;BME280;40551;50.478;19.378;2023-05-16T06:42:31;97484.81;;;30.17;33.68
53526;BME280;40551;50.478;19.378;2023-05-16T06:45:03;97478.20;;;30.39;33.31
53526;BME280;40551;50.478;19.378;2023-05-16T06:47:35;97475.54;;;30.08;32.85
53526;BME280;40551;50.478;19.378;2023-05-16T06:50:09;97474.80;;;30.04;33.17
53526;BME280;40551;50.478;19.378;2023-05-16T06:52:41;97472.20;;;30.11;33.21
53526;BME280;40551;50.478;19.378;2023-05-16T06:55:13;97475.39;;;29.98;32.92
53526;BME280;40551;50.478;19.378;2023-05-16T06:57:44;97470.95;;;29.92;32.85
53526;BME280;40551;50.478;19.378;2023-05-16T07:00:17;97476.09;;;29.77;32.43
53526;BME280;40551;50.478;19.378;2023-05-16T07:02:49;97485.60;;;29.49;32.42
53526;BME280;40551;50.478;19.378;2023-05-16T07:05:21;97483.83;;;29.41;33.06
53526;BME280;40551;50.478;19.378;2023-05-16T07:07:52;97478.13;;;29.37;33.05
53526;BME280;40551;50.478;19.378;2023-05-16T07:10:24;97485.08;;;29.25;32.87
53526;BME280;40551;50.478;19.378;2023-05-16T07:12:56;97487.93;;;29.11;33.57
53526;BME280;40551;50.478;19.378;2023-05-16T07:15:28;97488.05;;;29.01;33.93
53526;BME280;40551;50.478;19.378;2023-05-16T07:18:00;97483.73;;;28.68;33.50
53526;BME280;40551;50.478;19.378;2023-05-16T07:20:31;97487.06;;;28.19;33.87
53526;BME280;40551;50.478;19.378;2023-05-16T07:23:03;97490.95;;;27.64;34.19
53526;BME280;40551;50.478;19.378;2023-05-16T07:25:35;97494.66;;;27.15;35.26
53526;BME280;40551;50.478;19.378;2023-05-16T07:28:07;97492.98;;;26.72;36.04
53526;BME280;40551;50.478;19.378;2023-05-16T07:30:38;97492.97;;;26.22;36.24
53526;BME280;40551;50.478;19.378;2023-05-16T07:33:10;97499.39;;;25.72;36.58
53526;BME280;40551;50.478;19.378;2023-05-16T07:35:42;97504.08;;;25.07;37.07
53526;BME280;40551;50.478;19.378;2023-05-16T07:38:13;97502.95;;;24.41;37.63
53526;BME280;40551;50.478;19.378;2023-05-16T07:40:45;97498.70;;;23.89;38.56
53526;BME280;40551;50.478;19.378;2023-05-16T07:43:17;97505.34;;;23.49;39.41
53526;BME280;40551;50.478;19.378;2023-05-16T07:45:48;97508.66;;;23.11;40.27
53526;BME280;40551;50.478;19.378;2023-05-16T07:48:20;97510.38;;;22.85;40.65
53526;BME280;40551;50.478;19.378;2023-05-16T07:50:52;97510.36;;;22.48;41.10
53526;BME280;40551;50.478;19.378;2023-05-16T07:53:25;97514.59;;;22.24;42.06
53526;BME280;40551;50.478;19.378;2023-05-16T07:55:56;97516.50;;;22.21;42.61
53526;BME280;40551;50.478;19.378;2023-05-16T07:58:29;97514.22;;;22.25;42.75
53526;BME280;40551;50.478;19.378;2023-05-16T08:01:01;97520.40;;;22.22;42.61
53526;BME280;40551;50.478;19.378;2023-05-16T08:03:35;97519.58;;;22.18;42.61
53526;BME280;40551;50.478;19.378;2023-05-16T08:06:07;97526.98;;;22.13;42.86
53526;BME280;40551;50.478;19.378;2023-05-16T08:08:39;97537.42;;;22.07;42.57
53526;BME280;40551;50.478;19.378;2023-05-16T08:11:11;97552.45;;;21.91;42.90
53526;BME280;40551;50.478;19.378;2023-05-16T08:13:43;97559.31;;;21.89;43.53
53526;BME280;40551;50.478;19.378;2023-05-16T08:16:14;97567.04;;;21.85;43.31
53526;BME280;40551;50.478;19.378;2023-05-16T08:18:46;97564.85;;;21.83;43.46
53526;BME280;40551;50.478;19.378;2023-05-16T08:21:18;97561.52;;;21.85;43.69
53526;BME280;40551;50.478;19.378;2023-05-16T08:23:50;97559.90;;;21.95;43.74
53526;BME280;40551;50.478;19.378;2023-05-16T08:26:21;97558.34;;;21.95;42.95
53526;BME280;40551;50.478;19.378;2023-05-16T08:28:53;97553.92;;;21.92;42.70
53526;BME280;40551;50.478;19.378;2023-05-16T08:31:24;97555.43;;;21.96;43.10
53526;BME280;40551;50.478;19.378;2023-05-16T08:33:56;97563.08;;;22.00;43.25
53526;BME280;40551;50.478;19.378;2023-05-16T08:36:27;97568.56;;;22.06;43.09
53526;BME280;40551;50.478;19.378;2023-05-16T08:38:59;97568.33;;;22.07;43.52
53526;BME280;40551;50.478;19.378;2023-05-16T08:41:31;97565.59;;;21.99;43.30
53526;BME280;40551;50.478;19.378;2023-05-16T08:44:02;97559.19;;;21.95;43.09
53526;BME280;40551;50.478;19.378;2023-05-16T08:46:35;97558.93;;;21.93;43.49
53526;BME280;40551;50.478;19.378;2023-05-16T08:49:08;97567.23;;;21.81;42.71
53526;BME280;40551;50.478;19.378;2023-05-16T08:51:41;97574.74;;;21.66;43.05
53526;BME280;40551;50.478;19.378;2023-05-16T08:54:14;97576.27;;;21.55;43.64
53526;BME280;40551;50.478;19.378;2023-05-16T08:56:46;97566.69;;;21.51;44.10
53526;BME280;40551;50.478;19.378;2023-05-16T08:59:19;97553.20;;;21.53;45.15
53526;BME280;40551;50.478;19.378;2023-05-16T09:01:51;97548.54;;;21.56;45.19
53526;BME280;40551;50.478;19.378;2023-05-16T09:04:23;97551.17;;;21.56;45.54
53526;BME280;40551;50.478;19.378;2023-05-16T09:06:59;97549.45;;;21.60;45.05
53526;BME280;40551;50.478;19.378;2023-05-16T09:09:30;97546.92;;;21.66;45.13
53526;BME280;40551;50.478;19.378;2023-05-16T09:12:02;97551.83;;;21.64;44.56
53526;BME280;40551;50.478;19.378;2023-05-16T09:14:34;97554.78;;;21.61;44.50
53526;BME280;40551;50.478;19.378;2023-05-16T09:17:07;97553.79;;;21.67;45.08
53526;BME280;40551;50.478;19.378;2023-05-16T09:19:42;97557.67;;;21.81;45.39
53526;BME280;40551;50.478;19.378;2023-05-16T09:22:15;97563.05;;;22.01;44.85
53526;BME280;40551;50.478;19.378;2023-05-16T09:24:46;97560.01;;;22.05;44.80
53526;BME280;40551;50.478;19.378;2023-05-16T09:27:18;97558.48;;;22.04;44.81
53526;BME280;40551;50.478;19.378;2023-05-16T09:29:51;97557.45;;;22.00;44.75
53526;BME280;40551;50.478;19.378;2023-05-16T09:32:24;97555.53;;;21.93;43.94
53526;BME280;40551;50.478;19.378;2023-05-16T09:34:55;97553.90;;;21.95;44.06
53526;BME280;40551;50.478;19.378;2023-05-16T09:37:28;97547.86;;;22.06;44.16
53526;BME280;40551;50.478;19.378;2023-05-16T09:40:00;97555.35;;;22.13;44.23
53526;BME280;40551;50.478;19.378;2023-05-16T09:42:34;97563.88;;;22.21;44.04
53526;BME280;40551;50.478;19.378;2023-05-16T09:45:12;97560.11;;;22.23;43.39
53526;BME280;40551;50.478;19.378;2023-05-16T09:47:44;97556.20;;;22.16;43.56
53526;BME280;40551;50.478;19.378;2023-05-16T09:50:16;97562.20;;;22.09;43.36
53526;BME280;40551;50.478;19.378;2023-05-16T09:52:51;97563.48;;;22.03;43.20
53526;BME280;40551;50.478;19.378;2023-05-16T09:55:23;97562.77;;;21.86;42.70
53526;BME280;40551;50.478;19.378;2023-05-16T09:57:55;97557.42;;;21.80;43.36
53526;BME280;40551;50.478;19.378;2023-05-16T10:00:31;97558.46;;;21.88;44.06
53526;BME280;40551;50.478;19.378;2023-05-16T10:03:03;97555.29;;;21.99;43.81
53526;BME280;40551;50.478;19.378;2023-05-16T10:05:36;97556.71;;;22.11;43.96
53526;BME280;40551;50.478;19.378;2023-05-16T10:08:08;97565.10;;;22.26;44.12
53526;BME280;40551;50.478;19.378;2023-05-16T10:10:40;97560.71;;;22.38;43.70
53526;BME280;40551;50.478;19.378;2023-05-16T10:13:13;97552.10;;;22.56;43.58
53526;BME280;40551;50.478;19.378;2023-05-16T10:15:45;97547.55;;;22.71;43.27
53526;BME280;40551;50.478;19.378;2023-05-16T10:18:19;97546.82;;;22.82;42.23
53526;BME280;40551;50.478;19.378;2023-05-16T10:20:53;97547.91;;;22.74;41.41
53526;BME280;40551;50.478;19.378;2023-05-16T10:23:26;97544.73;;;22.67;42.03
53526;BME280;40551;50.478;19.378;2023-05-16T10:25:59;97542.98;;;22.73;42.35
53526;BME280;40551;50.478;19.378;2023-05-16T10:28:33;97544.94;;;22.78;41.84
53526;BME280;40551;50.478;19.378;2023-05-16T10:31:06;97550.17;;;22.70;40.97
53526;BME280;40551;50.478;19.378;2023-05-16T10:33:38;97553.14;;;22.63;40.84
53526;BME280;40551;50.478;19.378;2023-05-16T10:36:10;97543.55;;;22.59;41.05
53526;BME280;40551;50.478;19.378;2023-05-16T10:38:43;97547.03;;;22.52;40.12
53526;BME280;40551;50.478;19.378;2023-05-16T10:41:15;97555.31;;;22.09;39.43
53526;BME280;40551;50.478;19.378;2023-05-16T10:43:58;97550.69;;;21.76;40.13
53526;BME280;40551;50.478;19.378;2023-05-16T10:46:31;97548.63;;;21.58;40.96
53526;BME280;40551;50.478;19.378;2023-05-16T10:49:19;97544.15;;;21.61;41.64
53526;BME280;40551;50.478;19.378;2023-05-16T10:52:06;97539.58;;;21.62;41.44
53526;BME280;40551;50.478;19.378;2023-05-16T10:54:40;97535.24;;;21.59;41.70
53526;BME280;40551;50.478;19.378;2023-05-16T10:57:19;97542.55;;;21.67;41.94
53526;BME280;40551;50.478;19.378;2023-05-16T10:59:53;97538.98;;;21.79;41.97
53526;BME280;40551;50.478;19.378;2023-05-16T11:02:30;97543.41;;;21.91;41.92
53526;BME280;40551;50.478;19.378;2023-05-16T11:05:04;97546.96;;;21.95;41.65
53526;BME280;40551;50.478;19.378;2023-05-16T11:07:37;97546.36;;;21.83;41.44
53526;BME280;40551;50.478;19.378;2023-05-16T11:10:10;97549.84;;;21.74;41.65
53526;BME280;40551;50.478;19.378;2023-05-16T11:12:47;97538.44;;;21.79;41.97
53526;BME280;40551;50.478;19.378;2023-05-16T11:15:22;97536.96;;;21.87;42.48
53526;BME280;40551;50.478;19.378;2023-05-16T11:18:07;97546.06;;;21.90;42.06
53526;BME280;40551;50.478;19.378;2023-05-16T11:20:40;97541.66;;;21.95;42.21
53526;BME280;40551;50.478;19.378;2023-05-16T11:23:20;97539.34;;;22.07;42.16
53526;BME280;40551;50.478;19.378;2023-05-16T11:25:55;97537.88;;;22.11;42.25
53526;BME280;40551;50.478;19.378;2023-05-16T11:28:27;97535.58;;;22.21;42.83
53526;BME280;40551;50.478;19.378;2023-05-16T11:30:59;97529.41;;;22.21;41.14
53526;BME280;40551;50.478;19.378;2023-05-16T11:33:34;97532.58;;;22.11;40.21
53526;BME280;40551;50.478;19.378;2023-05-16T11:36:07;97530.54;;;22.11;40.24
53526;BME280;40551;50.478;19.378;2023-05-16T11:38:45;97520.84;;;22.15;40.84
53526;BME280;40551;50.478;19.378;2023-05-16T11:41:18;97521.68;;;22.07;40.70
53526;BME280;40551;50.478;19.378;2023-05-16T11:43:51;97524.58;;;21.75;41.65
53526;BME280;40551;50.478;19.378;2023-05-16T11:46:22;97518.38;;;21.44;42.13
53526;BME280;40551;50.478;19.378;2023-05-16T11:48:54;97525.39;;;21.22;42.77
53526;BME280;40551;50.478;19.378;2023-05-16T11:51:26;97523.94;;;21.10;43.14
53526;BME280;40551;50.478;19.378;2023-05-16T11:53:58;97529.23;;;20.97;43.75
53526;BME280;40551;50.478;19.378;2023-05-16T11:56:29;97524.59;;;20.89;43.96
53526;BME280;40551;50.478;19.378;2023-05-16T11:59:02;97530.33;;;20.89;44.25
53526;BME280;40551;50.478;19.378;2023-05-16T12:01:36;97537.92;;;20.94;43.79
53526;BME280;40551;50.478;19.378;2023-05-16T12:04:09;97538.00;;;20.94;44.00
53526;BME280;40551;50.478;19.378;2023-05-16T12:06:42;97545.50;;;20.91;43.92
53526;BME280;40551;50.478;19.378;2023-05-16T12:09:15;97537.23;;;20.92;43.77
53526;BME280;40551;50.478;19.378;2023-05-16T12:11:47;97529.91;;;21.01;43.55
53526;BME280;40551;50.478;19.378;2023-05-16T12:14:20;97533.27;;;21.06;44.15
53526;BME280;40551;50.478;19.378;2023-05-16T12:16:52;97534.95;;;21.04;44.05
53526;BME280;40551;50.478;19.378;2023-05-16T12:19:25;97534.23;;;21.02;43.94
53526;BME280;40551;50.478;19.378;2023-05-16T12:21:56;97530.41;;;21.11;43.99
53526;BME280;40551;50.478;19.378;2023-05-16T12:24:31;97535.87;;;21.08;44.03
53526;BME280;40551;50.478;19.378;2023-05-16T12:27:03;97536.58;;;21.05;43.46
53526;BME280;40551;50.478;19.378;2023-05-16T12:29:35;97537.55;;;20.96;43.29
53526;BME280;40551;50.478;19.378;2023-05-16T12:32:09;97538.33;;;20.93;43.24
53526;BME280;40551;50.478;19.378;2023-05-16T12:34:49;97534.50;;;20.92;43.35
53526;BME280;40551;50.478;19.378;2023-05-16T12:37:21;97535.27;;;20.84;43.85
53526;BME280;40551;50.478;19.378;2023-05-16T12:39:59;97533.08;;;20.80;44.36
53526;BME280;40551;50.478;19.378;2023-05-16T12:42:31;97533.43;;;20.74;44.28
53526;BME280;40551;50.478;19.378;2023-05-16T12:45:03;97533.86;;;20.60;44.06
53526;BME280;40551;50.478;19.378;2023-05-16T12:47:38;97531.09;;;20.48;43.96
53526;BME280;40551;50.478;19.378;2023-05-16T12:50:11;97530.73;;;20.41;43.85
53526;BME280;40551;50.478;19.378;2023-05-16T12:52:52;97527.64;;;20.41;43.60
53526;BME280;40551;50.478;19.378;2023-05-16T12:55:24;97524.48;;;20.37;43.22
53526;BME280;40551;50.478;19.378;2023-05-16T12:57:56;97525.84;;;20.30;42.91
53526;BME280;40551;50.478;19.378;2023-05-16T13:00:29;97516.50;;;20.22;43.21
53526;BME280;40551;50.478;19.378;2023-05-16T13:03:01;97522.50;;;20.28;43.87
53526;BME280;40551;50.478;19.378;2023-05-16T13:05:33;97520.14;;;20.32;43.52
53526;BME280;40551;50.478;19.378;2023-05-16T13:08:06;97517.05;;;20.30;43.31
53526;BME280;40551;50.478;19.378;2023-05-16T13:10:38;97510.33;;;20.37;43.72
53526;BME280;40551;50.478;19.378;2023-05-16T13:13:10;97515.13;;;20.44;43.53
53526;BME280;40551;50.478;19.378;2023-05-16T13:15:51;97513.16;;;20.30;43.77
53526;BME280;40551;50.478;19.378;2023-05-16T13:18:24;97512.52;;;20.16;44.26
53526;BME280;40551;50.478;19.378;2023-05-16T13:20:56;97512.65;;;20.08;44.67